Terminal Aerodrome Forecast
Issued by NWS

Current Version | Previous Version | Text Only | Print | Product List | Glossary Off
Versions: 1 2 3 4 5 6 7 8 9 10 11 12 13 14 15 16 17 18 19 20 21 22 23

021
FTUS41 KRLX 151130
TAFCKB
TAF
KCKB 151130Z 1512/1612 00000KT P6SM OVC035
      TEMPO 1512/1516 OVC025
     FM151800 25009G18KT P6SM BKN040
     FM160600 25009KT P6SM BKN040=

USA.gov is the U.S. government's official web portal to all federal, state and local government web resources and services.